Newville, Indiana
Current Conditions -  °F | °C
As of 10:55 PM on Thursday 18 Dec 2014 (Local Time) from KGWB Reporting Station
Overcast Overcast  
Wind Chill: -5°   Ceiling: 2900
Heat Index: -2°   Visibility: 10mi
Dew Point: -5°   Wind: 5mph
Humidity: 80%   Direction: 290°WNW
Pressure: 30.22"   Gusts: NA
Location:  41.4294°N, 84.8751°W
Report Text: KGWB 190355Z AUTO 29004KT 10SM OVC029 M02/M05 A3022 RMK AO2
Loading
Personal Weather Stations






























Interactive Weather Map New forecast layout! Learn more

10-Day Weather Forecast

Advertisements
Track Severe Weather on mobile